Ojuelas, Texas
Current Conditions -  °F | °C
As of 8:35 PM on Wednesday 22 Oct 2014 (Local Time) from KHBV Reporting Station
Broken Clouds Broken Clouds  
Wind Chill: 76°   Ceiling: 10000
Heat Index: 76°   Visibility: 10mi
Dew Point: 63°   Wind: 8mph
Humidity: 64%   Direction: 90°E
Pressure: 30.06"   Gusts: NA
Location:  27.4459°N, 99.0184°W
Report Text: KHBV 230135Z AUTO 09007KT 10SM BKN100 24/17 A3006 RMK AO2 T02430170 PWINO
Loading
Personal Weather Stations






























Interactive Weather Map
Tropical Storm Tracking
New forecast layout! Learn more

10-Day Weather Forecast

Advertisements
Track Severe Weather on mobile